sensor_id;sensor_type;location;lat;lon;timestamp;P1;durP1;ratioP1;P2;durP2;ratioP2
23072;SDS011;34865;51.046;3.732;2022-12-16T00:00:42;59.30;;;32.60;;
23072;SDS011;34865;51.046;3.732;2022-12-16T00:03:08;61.43;;;32.10;;
23072;SDS011;34865;51.046;3.732;2022-12-16T00:05:33;59.70;;;32.13;;
23072;SDS011;34865;51.046;3.732;2022-12-16T00:08:01;57.70;;;32.57;;
23072;SDS011;34865;51.046;3.732;2022-12-16T00:10:27;54.43;;;31.77;;
23072;SDS011;34865;51.046;3.732;2022-12-16T00:13:13;54.47;;;30.70;;
23072;SDS011;34865;51.046;3.732;2022-12-16T00:15:38;55.77;;;29.97;;
23072;SDS011;34865;51.046;3.732;2022-12-16T00:18:04;62.50;;;30.90;;
23072;SDS011;34865;51.046;3.732;2022-12-16T00:20:29;55.47;;;30.83;;
23072;SDS011;34865;51.046;3.732;2022-12-16T00:22:55;56.20;;;30.83;;
23072;SDS011;34865;51.046;3.732;2022-12-16T00:25:20;56.60;;;30.60;;
23072;SDS011;34865;51.046;3.732;2022-12-16T00:27:46;61.40;;;30.93;;
23072;SDS011;34865;51.046;3.732;2022-12-16T00:30:12;57.17;;;31.10;;
23072;SDS011;34865;51.046;3.732;2022-12-16T00:32:38;59.97;;;31.30;;
23072;SDS011;34865;51.046;3.732;2022-12-16T00:35:03;51.93;;;29.70;;
23072;SDS011;34865;51.046;3.732;2022-12-16T00:37:29;55.37;;;29.43;;
23072;SDS011;34865;51.046;3.732;2022-12-16T00:39:55;55.90;;;32.00;;
23072;SDS011;34865;51.046;3.732;2022-12-16T00:42:20;51.77;;;29.93;;
23072;SDS011;34865;51.046;3.732;2022-12-16T00:44:46;56.10;;;30.20;;
23072;SDS011;34865;51.046;3.732;2022-12-16T00:47:11;58.40;;;30.27;;
23072;SDS011;34865;51.046;3.732;2022-12-16T00:49:37;54.57;;;29.73;;
23072;SDS011;34865;51.046;3.732;2022-12-16T00:52:03;54.50;;;29.60;;
23072;SDS011;34865;51.046;3.732;2022-12-16T00:54:28;60.77;;;30.03;;
23072;SDS011;34865;51.046;3.732;2022-12-16T00:56:54;54.53;;;27.53;;
23072;SDS011;34865;51.046;3.732;2022-12-16T00:59:20;54.73;;;29.33;;
23072;SDS011;34865;51.046;3.732;2022-12-16T01:01:45;45.03;;;24.27;;
23072;SDS011;34865;51.046;3.732;2022-12-16T01:04:11;42.10;;;23.50;;
23072;SDS011;34865;51.046;3.732;2022-12-16T01:06:37;35.83;;;19.23;;
23072;SDS011;34865;51.046;3.732;2022-12-16T01:09:02;33.80;;;18.77;;
23072;SDS011;34865;51.046;3.732;2022-12-16T01:11:31;27.83;;;16.13;;
23072;SDS011;34865;51.046;3.732;2022-12-16T01:13:57;28.13;;;13.73;;
23072;SDS011;34865;51.046;3.732;2022-12-16T01:16:23;28.67;;;15.53;;
23072;SDS011;34865;51.046;3.732;2022-12-16T01:18:49;31.57;;;15.93;;
23072;SDS011;34865;51.046;3.732;2022-12-16T01:21:14;26.30;;;13.53;;
23072;SDS011;34865;51.046;3.732;2022-12-16T01:23:40;27.63;;;14.17;;
23072;SDS011;34865;51.046;3.732;2022-12-16T01:26:06;28.27;;;14.10;;
23072;SDS011;34865;51.046;3.732;2022-12-16T01:28:32;25.60;;;14.23;;
23072;SDS011;34865;51.046;3.732;2022-12-16T01:30:58;24.73;;;12.67;;
23072;SDS011;34865;51.046;3.732;2022-12-16T01:33:26;24.20;;;12.83;;
23072;SDS011;34865;51.046;3.732;2022-12-16T01:36:03;30.67;;;13.47;;
23072;SDS011;34865;51.046;3.732;2022-12-16T01:38:30;29.70;;;12.50;;
23072;SDS011;34865;51.046;3.732;2022-12-16T01:40:56;34.80;;;13.33;;
23072;SDS011;34865;51.046;3.732;2022-12-16T01:43:26;28.07;;;13.47;;
23072;SDS011;34865;51.046;3.732;2022-12-16T01:45:55;31.70;;;12.77;;
23072;SDS011;34865;51.046;3.732;2022-12-16T01:54:18;34.93;;;14.37;;
23072;SDS011;34865;51.046;3.732;2022-12-16T01:56:50;30.87;;;13.57;;
23072;SDS011;34865;51.046;3.732;2022-12-16T01:59:21;37.37;;;13.27;;
23072;SDS011;34865;51.046;3.732;2022-12-16T02:01:50;28.80;;;13.77;;
23072;SDS011;34865;51.046;3.732;2022-12-16T02:04:16;29.60;;;12.67;;
23072;SDS011;34865;51.046;3.732;2022-12-16T02:06:42;30.20;;;11.93;;
23072;SDS011;34865;51.046;3.732;2022-12-16T02:09:08;31.00;;;12.63;;
23072;SDS011;34865;51.046;3.732;2022-12-16T02:16:59;28.53;;;11.63;;
23072;SDS011;34865;51.046;3.732;2022-12-16T02:19:45;25.13;;;11.17;;
23072;SDS011;34865;51.046;3.732;2022-12-16T02:39:26;24.90;;;8.70;;
23072;SDS011;34865;51.046;3.732;2022-12-16T02:42:18;25.00;;;10.17;;
23072;SDS011;34865;51.046;3.732;2022-12-16T02:47:28;18.47;;;8.37;;
23072;SDS011;34865;51.046;3.732;2022-12-16T02:49:55;13.10;;;8.90;;
23072;SDS011;34865;51.046;3.732;2022-12-16T02:52:22;21.73;;;9.77;;
23072;SDS011;34865;51.046;3.732;2022-12-16T02:54:54;14.40;;;8.00;;
23072;SDS011;34865;51.046;3.732;2022-12-16T03:00:02;16.90;;;8.57;;
23072;SDS011;34865;51.046;3.732;2022-12-16T03:02:40;26.80;;;8.90;;
23072;SDS011;34865;51.046;3.732;2022-12-16T03:07:50;21.63;;;8.53;;
23072;SDS011;34865;51.046;3.732;2022-12-16T03:10:18;21.70;;;9.03;;
23072;SDS011;34865;51.046;3.732;2022-12-16T03:12:48;15.53;;;8.63;;
23072;SDS011;34865;51.046;3.732;2022-12-16T03:15:16;19.00;;;7.80;;
23072;SDS011;34865;51.046;3.732;2022-12-16T03:17:45;16.97;;;7.20;;
23072;SDS011;34865;51.046;3.732;2022-12-16T03:20:34;17.40;;;6.10;;
23072;SDS011;34865;51.046;3.732;2022-12-16T03:23:20;13.77;;;5.57;;
23072;SDS011;34865;51.046;3.732;2022-12-16T03:25:52;16.33;;;4.97;;
23072;SDS011;34865;51.046;3.732;2022-12-16T03:30:56;11.00;;;3.50;;
23072;SDS011;34865;51.046;3.732;2022-12-16T03:33:32;6.73;;;3.70;;
23072;SDS011;34865;51.046;3.732;2022-12-16T03:36:05;9.13;;;3.57;;
23072;SDS011;34865;51.046;3.732;2022-12-16T03:38:36;8.07;;;3.50;;
23072;SDS011;34865;51.046;3.732;2022-12-16T03:41:04;12.83;;;3.70;;
23072;SDS011;34865;51.046;3.732;2022-12-16T03:43:31;9.90;;;3.43;;
23072;SDS011;34865;51.046;3.732;2022-12-16T03:45:59;14.83;;;3.93;;
23072;SDS011;34865;51.046;3.732;2022-12-16T03:48:28;11.37;;;3.40;;
23072;SDS011;34865;51.046;3.732;2022-12-16T03:50:55;10.23;;;3.80;;
23072;SDS011;34865;51.046;3.732;2022-12-16T03:53:20;10.50;;;3.50;;
23072;SDS011;34865;51.046;3.732;2022-12-16T03:55:50;14.73;;;4.00;;
23072;SDS011;34865;51.046;3.732;2022-12-16T03:58:16;8.03;;;3.30;;
23072;SDS011;34865;51.046;3.732;2022-12-16T04:00:41;10.53;;;3.80;;
23072;SDS011;34865;51.046;3.732;2022-12-16T04:03:07;11.17;;;3.87;;
23072;SDS011;34865;51.046;3.732;2022-12-16T04:05:32;10.67;;;4.03;;
23072;SDS011;34865;51.046;3.732;2022-12-16T04:07:58;8.90;;;4.10;;
23072;SDS011;34865;51.046;3.732;2022-12-16T04:10:24;9.70;;;4.27;;
23072;SDS011;34865;51.046;3.732;2022-12-16T04:13:08;8.37;;;3.73;;
23072;SDS011;34865;51.046;3.732;2022-12-16T04:15:53;12.07;;;4.07;;
23072;SDS011;34865;51.046;3.732;2022-12-16T04:18:38;9.40;;;4.37;;
23072;SDS011;34865;51.046;3.732;2022-12-16T04:21:23;12.60;;;4.13;;
23072;SDS011;34865;51.046;3.732;2022-12-16T04:24:09;10.80;;;4.53;;
23072;SDS011;34865;51.046;3.732;2022-12-16T04:26:47;10.23;;;4.13;;
23072;SDS011;34865;51.046;3.732;2022-12-16T04:29:32;12.07;;;4.57;;
23072;SDS011;34865;51.046;3.732;2022-12-16T04:31:58;6.90;;;4.07;;
23072;SDS011;34865;51.046;3.732;2022-12-16T04:34:24;12.97;;;4.77;;
23072;SDS011;34865;51.046;3.732;2022-12-16T04:36:53;9.80;;;4.77;;
23072;SDS011;34865;51.046;3.732;2022-12-16T04:39:42;11.20;;;4.30;;
23072;SDS011;34865;51.046;3.732;2022-12-16T04:42:26;10.93;;;4.33;;
23072;SDS011;34865;51.046;3.732;2022-12-16T04:45:10;8.70;;;4.37;;
23072;SDS011;34865;51.046;3.732;2022-12-16T04:47:55;13.47;;;5.33;;
23072;SDS011;34865;51.046;3.732;2022-12-16T04:50:39;11.63;;;5.17;;
23072;SDS011;34865;51.046;3.732;2022-12-16T04:53:24;10.93;;;4.77;;
23072;SDS011;34865;51.046;3.732;2022-12-16T04:56:09;12.20;;;5.07;;
23072;SDS011;34865;51.046;3.732;2022-12-16T04:58:53;10.50;;;4.77;;
23072;SDS011;34865;51.046;3.732;2022-12-16T05:01:37;8.53;;;5.37;;
23072;SDS011;34865;51.046;3.732;2022-12-16T05:04:29;11.73;;;4.63;;
23072;SDS011;34865;51.046;3.732;2022-12-16T05:07:13;9.00;;;4.73;;
23072;SDS011;34865;51.046;3.732;2022-12-16T05:09:58;8.60;;;4.33;;
23072;SDS011;34865;51.046;3.732;2022-12-16T05:12:42;15.00;;;4.20;;
23072;SDS011;34865;51.046;3.732;2022-12-16T05:15:26;13.13;;;3.97;;
23072;SDS011;34865;51.046;3.732;2022-12-16T05:18:10;14.57;;;3.73;;
23072;SDS011;34865;51.046;3.732;2022-12-16T05:20:57;10.47;;;3.93;;
23072;SDS011;34865;51.046;3.732;2022-12-16T05:23:42;13.63;;;3.87;;
23072;SDS011;34865;51.046;3.732;2022-12-16T05:26:27;11.93;;;3.77;;
23072;SDS011;34865;51.046;3.732;2022-12-16T05:29:11;15.60;;;3.70;;
23072;SDS011;34865;51.046;3.732;2022-12-16T05:31:57;12.23;;;4.00;;
23072;SDS011;34865;51.046;3.732;2022-12-16T05:34:41;8.63;;;3.70;;
23072;SDS011;34865;51.046;3.732;2022-12-16T05:37:25;10.23;;;3.53;;
23072;SDS011;34865;51.046;3.732;2022-12-16T05:40:10;7.33;;;3.60;;
23072;SDS011;34865;51.046;3.732;2022-12-16T05:42:54;7.50;;;3.67;;
23072;SDS011;34865;51.046;3.732;2022-12-16T05:45:39;9.63;;;3.20;;
23072;SDS011;34865;51.046;3.732;2022-12-16T05:48:24;9.50;;;3.23;;
23072;SDS011;34865;51.046;3.732;2022-12-16T05:51:08;16.70;;;3.40;;
23072;SDS011;34865;51.046;3.732;2022-12-16T05:53:52;12.00;;;4.03;;
23072;SDS011;34865;51.046;3.732;2022-12-16T05:56:36;18.97;;;3.70;;
23072;SDS011;34865;51.046;3.732;2022-12-16T05:59:20;10.20;;;3.53;;
23072;SDS011;34865;51.046;3.732;2022-12-16T06:02:04;8.83;;;3.63;;
23072;SDS011;34865;51.046;3.732;2022-12-16T06:04:48;12.30;;;3.83;;
23072;SDS011;34865;51.046;3.732;2022-12-16T06:07:32;12.10;;;4.20;;
23072;SDS011;34865;51.046;3.732;2022-12-16T06:10:16;14.87;;;4.53;;
23072;SDS011;34865;51.046;3.732;2022-12-16T06:13:00;7.80;;;3.53;;
23072;SDS011;34865;51.046;3.732;2022-12-16T06:15:44;9.70;;;3.70;;
23072;SDS011;34865;51.046;3.732;2022-12-16T06:18:28;13.93;;;4.53;;
23072;SDS011;34865;51.046;3.732;2022-12-16T06:21:13;12.93;;;5.03;;
23072;SDS011;34865;51.046;3.732;2022-12-16T06:23:57;16.53;;;4.87;;
23072;SDS011;34865;51.046;3.732;2022-12-16T06:26:41;6.97;;;3.83;;
23072;SDS011;34865;51.046;3.732;2022-12-16T06:29:25;10.07;;;4.03;;
23072;SDS011;34865;51.046;3.732;2022-12-16T06:32:10;13.70;;;4.10;;
23072;SDS011;34865;51.046;3.732;2022-12-16T06:34:54;11.97;;;3.93;;
23072;SDS011;34865;51.046;3.732;2022-12-16T06:37:38;8.27;;;4.20;;
23072;SDS011;34865;51.046;3.732;2022-12-16T06:40:22;16.67;;;4.60;;
23072;SDS011;34865;51.046;3.732;2022-12-16T06:43:06;10.27;;;3.40;;
23072;SDS011;34865;51.046;3.732;2022-12-16T06:45:50;9.30;;;4.27;;
23072;SDS011;34865;51.046;3.732;2022-12-16T06:48:35;12.63;;;4.53;;
23072;SDS011;34865;51.046;3.732;2022-12-16T06:51:19;7.47;;;4.00;;
23072;SDS011;34865;51.046;3.732;2022-12-16T06:54:03;15.67;;;3.60;;
23072;SDS011;34865;51.046;3.732;2022-12-16T06:56:47;12.57;;;4.20;;
23072;SDS011;34865;51.046;3.732;2022-12-16T06:59:31;14.40;;;4.13;;
23072;SDS011;34865;51.046;3.732;2022-12-16T07:02:16;13.20;;;5.07;;
23072;SDS011;34865;51.046;3.732;2022-12-16T07:05:00;13.57;;;4.67;;
23072;SDS011;34865;51.046;3.732;2022-12-16T07:07:48;10.57;;;4.87;;
23072;SDS011;34865;51.046;3.732;2022-12-16T07:10:33;17.27;;;5.23;;
23072;SDS011;34865;51.046;3.732;2022-12-16T07:13:18;14.90;;;4.93;;
23072;SDS011;34865;51.046;3.732;2022-12-16T07:16:02;14.40;;;5.13;;
23072;SDS011;34865;51.046;3.732;2022-12-16T07:18:46;10.83;;;4.93;;
23072;SDS011;34865;51.046;3.732;2022-12-16T07:21:30;16.53;;;5.07;;
23072;SDS011;34865;51.046;3.732;2022-12-16T07:24:14;18.60;;;5.37;;
23072;SDS011;34865;51.046;3.732;2022-12-16T07:26:58;13.37;;;5.37;;
23072;SDS011;34865;51.046;3.732;2022-12-16T07:29:42;12.27;;;5.40;;
23072;SDS011;34865;51.046;3.732;2022-12-16T07:32:26;15.23;;;6.03;;
23072;SDS011;34865;51.046;3.732;2022-12-16T07:35:10;18.57;;;6.80;;
23072;SDS011;34865;51.046;3.732;2022-12-16T07:37:55;18.97;;;6.17;;
23072;SDS011;34865;51.046;3.732;2022-12-16T07:40:39;17.03;;;6.30;;
23072;SDS011;34865;51.046;3.732;2022-12-16T07:43:23;21.10;;;8.17;;
23072;SDS011;34865;51.046;3.732;2022-12-16T07:46:07;20.20;;;8.10;;
23072;SDS011;34865;51.046;3.732;2022-12-16T07:48:51;17.47;;;7.77;;
23072;SDS011;34865;51.046;3.732;2022-12-16T07:51:35;23.60;;;8.57;;
23072;SDS011;34865;51.046;3.732;2022-12-16T07:54:19;13.57;;;7.27;;
23072;SDS011;34865;51.046;3.732;2022-12-16T07:57:04;17.17;;;7.03;;
23072;SDS011;34865;51.046;3.732;2022-12-16T07:59:48;14.13;;;6.97;;
23072;SDS011;34865;51.046;3.732;2022-12-16T08:02:32;21.63;;;6.70;;
23072;SDS011;34865;51.046;3.732;2022-12-16T08:05:16;18.20;;;6.20;;
23072;SDS011;34865;51.046;3.732;2022-12-16T08:08:00;31.27;;;9.17;;
23072;SDS011;34865;51.046;3.732;2022-12-16T08:10:44;28.87;;;7.50;;
23072;SDS011;34865;51.046;3.732;2022-12-16T08:13:28;15.80;;;7.23;;
23072;SDS011;34865;51.046;3.732;2022-12-16T08:16:12;22.00;;;7.43;;
23072;SDS011;34865;51.046;3.732;2022-12-16T08:18:56;16.03;;;7.07;;
23072;SDS011;34865;51.046;3.732;2022-12-16T08:21:40;22.50;;;6.90;;
23072;SDS011;34865;51.046;3.732;2022-12-16T08:24:24;14.47;;;5.97;;
23072;SDS011;34865;51.046;3.732;2022-12-16T08:27:08;24.43;;;6.60;;
23072;SDS011;34865;51.046;3.732;2022-12-16T08:29:52;14.80;;;6.30;;
23072;SDS011;34865;51.046;3.732;2022-12-16T08:32:36;21.00;;;6.47;;
23072;SDS011;34865;51.046;3.732;2022-12-16T08:35:21;19.23;;;6.70;;
23072;SDS011;34865;51.046;3.732;2022-12-16T08:38:05;13.30;;;5.80;;
23072;SDS011;34865;51.046;3.732;2022-12-16T08:41:09;29.53;;;7.20;;
23072;SDS011;34865;51.046;3.732;2022-12-16T08:43:53;21.30;;;6.30;;
23072;SDS011;34865;51.046;3.732;2022-12-16T08:46:37;16.07;;;7.00;;
23072;SDS011;34865;51.046;3.732;2022-12-16T08:49:22;13.40;;;6.63;;
23072;SDS011;34865;51.046;3.732;2022-12-16T08:52:06;15.47;;;6.63;;
23072;SDS011;34865;51.046;3.732;2022-12-16T08:54:50;18.00;;;6.50;;
23072;SDS011;34865;51.046;3.732;2022-12-16T08:57:34;16.33;;;6.03;;
23072;SDS011;34865;51.046;3.732;2022-12-16T09:00:18;17.87;;;6.80;;
23072;SDS011;34865;51.046;3.732;2022-12-16T09:03:02;17.20;;;6.47;;
23072;SDS011;34865;51.046;3.732;2022-12-16T09:05:47;17.60;;;6.93;;
23072;SDS011;34865;51.046;3.732;2022-12-16T09:08:31;26.57;;;7.87;;
23072;SDS011;34865;51.046;3.732;2022-12-16T09:11:15;13.00;;;6.47;;
23072;SDS011;34865;51.046;3.732;2022-12-16T09:13:59;19.53;;;7.27;;
23072;SDS011;34865;51.046;3.732;2022-12-16T09:16:43;13.23;;;6.07;;
23072;SDS011;34865;51.046;3.732;2022-12-16T09:19:27;11.80;;;5.47;;
23072;SDS011;34865;51.046;3.732;2022-12-16T09:22:12;13.33;;;6.10;;
23072;SDS011;34865;51.046;3.732;2022-12-16T09:24:55;15.23;;;6.00;;
23072;SDS011;34865;51.046;3.732;2022-12-16T09:27:40;17.37;;;6.17;;
23072;SDS011;34865;51.046;3.732;2022-12-16T09:30:24;12.50;;;5.20;;
23072;SDS011;34865;51.046;3.732;2022-12-16T09:33:08;16.53;;;6.20;;
23072;SDS011;34865;51.046;3.732;2022-12-16T09:35:52;9.97;;;5.63;;
23072;SDS011;34865;51.046;3.732;2022-12-16T09:38:36;12.90;;;5.27;;
23072;SDS011;34865;51.046;3.732;2022-12-16T09:41:27;23.33;;;6.67;;
23072;SDS011;34865;51.046;3.732;2022-12-16T09:47:46;18.10;;;5.83;;
23072;SDS011;34865;51.046;3.732;2022-12-16T09:50:30;19.47;;;6.47;;
23072;SDS011;34865;51.046;3.732;2022-12-16T09:53:19;16.77;;;5.87;;
23072;SDS011;34865;51.046;3.732;2022-12-16T09:56:06;14.33;;;6.13;;
23072;SDS011;34865;51.046;3.732;2022-12-16T09:58:58;14.20;;;5.90;;
23072;SDS011;34865;51.046;3.732;2022-12-16T10:01:45;17.43;;;6.90;;
23072;SDS011;34865;51.046;3.732;2022-12-16T10:04:30;18.70;;;7.20;;
23072;SDS011;34865;51.046;3.732;2022-12-16T10:07:18;20.90;;;7.53;;
23072;SDS011;34865;51.046;3.732;2022-12-16T10:13:56;20.50;;;9.27;;
23072;SDS011;34865;51.046;3.732;2022-12-16T10:19:28;20.57;;;10.20;;
23072;SDS011;34865;51.046;3.732;2022-12-16T10:22:37;28.47;;;10.77;;
23072;SDS011;34865;51.046;3.732;2022-12-16T10:28:54;19.13;;;10.37;;
23072;SDS011;34865;51.046;3.732;2022-12-16T10:31:46;18.27;;;10.30;;
23072;SDS011;34865;51.046;3.732;2022-12-16T10:34:31;22.03;;;10.67;;
23072;SDS011;34865;51.046;3.732;2022-12-16T10:37:29;29.57;;;10.63;;
23072;SDS011;34865;51.046;3.732;2022-12-16T10:40:22;24.10;;;10.70;;
23072;SDS011;34865;51.046;3.732;2022-12-16T10:43:12;21.43;;;10.03;;
23072;SDS011;34865;51.046;3.732;2022-12-16T10:46:07;21.23;;;11.37;;
23072;SDS011;34865;51.046;3.732;2022-12-16T10:48:58;29.00;;;9.97;;
23072;SDS011;34865;51.046;3.732;2022-12-16T10:51:53;18.13;;;8.37;;
23072;SDS011;34865;51.046;3.732;2022-12-16T10:54:39;30.93;;;10.77;;
23072;SDS011;34865;51.046;3.732;2022-12-16T11:00:39;34.03;;;10.73;;
23072;SDS011;34865;51.046;3.732;2022-12-16T11:03:27;29.33;;;10.90;;
23072;SDS011;34865;51.046;3.732;2022-12-16T11:06:18;32.43;;;9.93;;
23072;SDS011;34865;51.046;3.732;2022-12-16T11:12:12;16.47;;;7.33;;
23072;SDS011;34865;51.046;3.732;2022-12-16T11:18:15;15.53;;;6.37;;
23072;SDS011;34865;51.046;3.732;2022-12-16T11:21:05;13.77;;;5.90;;
23072;SDS011;34865;51.046;3.732;2022-12-16T11:26:59;12.40;;;5.30;;
23072;SDS011;34865;51.046;3.732;2022-12-16T11:29:48;9.27;;;5.10;;
23072;SDS011;34865;51.046;3.732;2022-12-16T11:32:36;10.63;;;4.73;;
23072;SDS011;34865;51.046;3.732;2022-12-16T11:35:23;14.13;;;5.00;;
23072;SDS011;34865;51.046;3.732;2022-12-16T11:38:15;10.30;;;5.00;;
23072;SDS011;34865;51.046;3.732;2022-12-16T11:41:20;11.93;;;5.57;;
23072;SDS011;34865;51.046;3.732;2022-12-16T11:44:09;12.47;;;5.30;;
23072;SDS011;34865;51.046;3.732;2022-12-16T11:47:00;12.20;;;4.47;;
23072;SDS011;34865;51.046;3.732;2022-12-16T11:49:46;8.60;;;4.50;;
23072;SDS011;34865;51.046;3.732;2022-12-16T11:52:30;10.23;;;4.07;;
23072;SDS011;34865;51.046;3.732;2022-12-16T11:55:20;8.13;;;3.70;;
23072;SDS011;34865;51.046;3.732;2022-12-16T12:01:08;15.27;;;3.83;;
23072;SDS011;34865;51.046;3.732;2022-12-16T12:04:06;7.37;;;3.53;;
23072;SDS011;34865;51.046;3.732;2022-12-16T12:10:01;10.70;;;4.50;;
23072;SDS011;34865;51.046;3.732;2022-12-16T12:22:35;6.70;;;2.80;;
23072;SDS011;34865;51.046;3.732;2022-12-16T12:31:30;7.53;;;2.60;;
23072;SDS011;34865;51.046;3.732;2022-12-16T12:34:44;8.73;;;2.97;;
23072;SDS011;34865;51.046;3.732;2022-12-16T12:37:41;13.00;;;3.57;;
23072;SDS011;34865;51.046;3.732;2022-12-16T12:40:41;7.47;;;2.70;;
23072;SDS011;34865;51.046;3.732;2022-12-16T12:43:44;8.83;;;2.43;;
23072;SDS011;34865;51.046;3.732;2022-12-16T12:47:08;10.70;;;3.00;;
23072;SDS011;34865;51.046;3.732;2022-12-16T12:59:03;9.57;;;2.87;;
23072;SDS011;34865;51.046;3.732;2022-12-16T13:02:14;9.57;;;2.40;;
23072;SDS011;34865;51.046;3.732;2022-12-16T13:05:03;10.00;;;2.90;;
23072;SDS011;34865;51.046;3.732;2022-12-16T13:07:49;4.17;;;2.20;;
23072;SDS011;34865;51.046;3.732;2022-12-16T13:10:36;12.53;;;3.00;;
23072;SDS011;34865;51.046;3.732;2022-12-16T13:13:27;8.13;;;2.87;;
23072;SDS011;34865;51.046;3.732;2022-12-16T13:22:29;8.07;;;3.10;;
23072;SDS011;34865;51.046;3.732;2022-12-16T13:28:34;5.43;;;2.80;;
23072;SDS011;34865;51.046;3.732;2022-12-16T13:31:24;12.57;;;3.40;;
23072;SDS011;34865;51.046;3.732;2022-12-16T13:37:01;11.53;;;2.93;;
23072;SDS011;34865;51.046;3.732;2022-12-16T13:39:58;7.67;;;2.87;;
23072;SDS011;34865;51.046;3.732;2022-12-16T13:42:59;12.80;;;2.63;;
23072;SDS011;34865;51.046;3.732;2022-12-16T13:46:11;6.37;;;3.03;;
23072;SDS011;34865;51.046;3.732;2022-12-16T13:48:47;4.67;;;2.77;;
23072;SDS011;34865;51.046;3.732;2022-12-16T13:54:28;4.53;;;2.30;;
23072;SDS011;34865;51.046;3.732;2022-12-16T13:57:18;6.73;;;2.30;;
23072;SDS011;34865;51.046;3.732;2022-12-16T14:00:15;9.53;;;2.60;;
23072;SDS011;34865;51.046;3.732;2022-12-16T14:03:32;6.73;;;2.60;;
23072;SDS011;34865;51.046;3.732;2022-12-16T14:06:22;7.50;;;2.43;;
23072;SDS011;34865;51.046;3.732;2022-12-16T14:09:24;6.00;;;2.73;;
23072;SDS011;34865;51.046;3.732;2022-12-16T14:12:19;5.50;;;2.73;;
23072;SDS011;34865;51.046;3.732;2022-12-16T14:15:22;11.93;;;2.90;;
23072;SDS011;34865;51.046;3.732;2022-12-16T14:18:25;6.97;;;2.63;;
23072;SDS011;34865;51.046;3.732;2022-12-16T14:21:18;5.47;;;3.23;;
23072;SDS011;34865;51.046;3.732;2022-12-16T14:24:11;10.37;;;2.97;;
23072;SDS011;34865;51.046;3.732;2022-12-16T14:27:10;6.53;;;3.10;;
23072;SDS011;34865;51.046;3.732;2022-12-16T14:30:11;7.00;;;3.50;;
23072;SDS011;34865;51.046;3.732;2022-12-16T14:36:20;7.80;;;3.83;;
23072;SDS011;34865;51.046;3.732;2022-12-16T14:42:23;14.50;;;4.53;;
23072;SDS011;34865;51.046;3.732;2022-12-16T14:45:20;9.53;;;3.87;;
23072;SDS011;34865;51.046;3.732;2022-12-16T14:51:14;9.33;;;4.23;;
23072;SDS011;34865;51.046;3.732;2022-12-16T14:57:22;11.40;;;4.07;;
23072;SDS011;34865;51.046;3.732;2022-12-16T15:06:14;10.43;;;3.80;;
23072;SDS011;34865;51.046;3.732;2022-12-16T15:09:11;6.00;;;4.07;;
23072;SDS011;34865;51.046;3.732;2022-12-16T15:12:04;11.40;;;4.03;;
23072;SDS011;34865;51.046;3.732;2022-12-16T15:14:51;10.97;;;3.93;;
23072;SDS011;34865;51.046;3.732;2022-12-16T15:17:46;9.23;;;4.40;;
23072;SDS011;34865;51.046;3.732;2022-12-16T15:20:32;16.77;;;4.00;;
23072;SDS011;34865;51.046;3.732;2022-12-16T15:23:20;9.43;;;3.83;;
23072;SDS011;34865;51.046;3.732;2022-12-16T15:26:05;9.10;;;3.73;;
23072;SDS011;34865;51.046;3.732;2022-12-16T15:28:50;9.10;;;4.43;;
23072;SDS011;34865;51.046;3.732;2022-12-16T15:31:35;6.33;;;3.70;;
23072;SDS011;34865;51.046;3.732;2022-12-16T15:34:26;7.33;;;4.43;;
23072;SDS011;34865;51.046;3.732;2022-12-16T15:37:16;8.07;;;4.07;;
23072;SDS011;34865;51.046;3.732;2022-12-16T15:40:23;7.73;;;4.20;;
23072;SDS011;34865;51.046;3.732;2022-12-16T15:43:20;11.87;;;5.03;;
23072;SDS011;34865;51.046;3.732;2022-12-16T15:46:14;11.93;;;4.73;;
23072;SDS011;34865;51.046;3.732;2022-12-16T15:49:19;9.43;;;5.37;;
23072;SDS011;34865;51.046;3.732;2022-12-16T15:55:27;11.90;;;5.03;;
23072;SDS011;34865;51.046;3.732;2022-12-16T15:58:18;11.13;;;5.13;;
23072;SDS011;34865;51.046;3.732;2022-12-16T16:01:06;10.80;;;5.10;;
23072;SDS011;34865;51.046;3.732;2022-12-16T16:03:52;11.37;;;5.07;;
23072;SDS011;34865;51.046;3.732;2022-12-16T16:06:40;10.37;;;4.97;;
23072;SDS011;34865;51.046;3.732;2022-12-16T16:09:36;15.73;;;5.57;;
23072;SDS011;34865;51.046;3.732;2022-12-16T16:12:22;11.37;;;5.37;;
23072;SDS011;34865;51.046;3.732;2022-12-16T16:15:08;14.30;;;5.50;;
23072;SDS011;34865;51.046;3.732;2022-12-16T16:17:59;13.00;;;5.50;;
23072;SDS011;34865;51.046;3.732;2022-12-16T16:20:47;15.57;;;5.67;;
23072;SDS011;34865;51.046;3.732;2022-12-16T16:23:32;10.77;;;5.40;;
23072;SDS011;34865;51.046;3.732;2022-12-16T16:26:17;16.03;;;7.30;;
23072;SDS011;34865;51.046;3.732;2022-12-16T16:29:08;20.33;;;6.20;;
23072;SDS011;34865;51.046;3.732;2022-12-16T16:31:53;13.43;;;5.93;;
23072;SDS011;34865;51.046;3.732;2022-12-16T16:34:37;20.17;;;7.40;;
23072;SDS011;34865;51.046;3.732;2022-12-16T16:37:22;22.17;;;6.90;;
23072;SDS011;34865;51.046;3.732;2022-12-16T16:40:15;12.80;;;6.30;;
23072;SDS011;34865;51.046;3.732;2022-12-16T16:43:11;15.67;;;6.67;;
23072;SDS011;34865;51.046;3.732;2022-12-16T16:45:55;19.57;;;6.77;;
23072;SDS011;34865;51.046;3.732;2022-12-16T16:48:39;19.03;;;8.03;;
23072;SDS011;34865;51.046;3.732;2022-12-16T16:51:24;26.80;;;7.33;;
23072;SDS011;34865;51.046;3.732;2022-12-16T16:54:08;18.93;;;8.03;;
23072;SDS011;34865;51.046;3.732;2022-12-16T16:56:52;20.23;;;8.27;;
23072;SDS011;34865;51.046;3.732;2022-12-16T16:59:37;24.03;;;7.83;;
23072;SDS011;34865;51.046;3.732;2022-12-16T17:02:21;17.80;;;7.63;;
23072;SDS011;34865;51.046;3.732;2022-12-16T17:05:07;15.67;;;7.10;;
23072;SDS011;34865;51.046;3.732;2022-12-16T17:07:52;17.27;;;7.80;;
23072;SDS011;34865;51.046;3.732;2022-12-16T17:10:36;23.73;;;8.47;;
23072;SDS011;34865;51.046;3.732;2022-12-16T17:13:20;22.23;;;8.20;;
23072;SDS011;34865;51.046;3.732;2022-12-16T17:16:04;20.13;;;8.57;;
23072;SDS011;34865;51.046;3.732;2022-12-16T17:18:49;23.90;;;8.20;;
23072;SDS011;34865;51.046;3.732;2022-12-16T17:21:33;23.13;;;8.50;;
23072;SDS011;34865;51.046;3.732;2022-12-16T17:24:17;23.73;;;8.60;;
23072;SDS011;34865;51.046;3.732;2022-12-16T17:29:57;15.73;;;8.07;;
23072;SDS011;34865;51.046;3.732;2022-12-16T17:32:41;14.40;;;8.50;;
23072;SDS011;34865;51.046;3.732;2022-12-16T17:35:26;17.80;;;8.07;;
23072;SDS011;34865;51.046;3.732;2022-12-16T17:38:29;21.17;;;9.13;;
23072;SDS011;34865;51.046;3.732;2022-12-16T17:41:14;24.70;;;8.90;;
23072;SDS011;34865;51.046;3.732;2022-12-16T17:43:58;18.40;;;8.73;;
23072;SDS011;34865;51.046;3.732;2022-12-16T17:46:42;19.87;;;9.27;;
23072;SDS011;34865;51.046;3.732;2022-12-16T17:49:26;23.87;;;8.90;;
23072;SDS011;34865;51.046;3.732;2022-12-16T17:52:11;16.03;;;8.37;;
23072;SDS011;34865;51.046;3.732;2022-12-16T17:54:55;17.30;;;8.57;;
23072;SDS011;34865;51.046;3.732;2022-12-16T17:57:39;19.87;;;9.43;;
23072;SDS011;34865;51.046;3.732;2022-12-16T18:00:23;24.07;;;9.87;;
23072;SDS011;34865;51.046;3.732;2022-12-16T18:03:07;18.93;;;10.63;;
23072;SDS011;34865;51.046;3.732;2022-12-16T18:05:55;21.83;;;10.73;;
23072;SDS011;34865;51.046;3.732;2022-12-16T18:08:40;31.50;;;12.30;;
23072;SDS011;34865;51.046;3.732;2022-12-16T18:11:24;26.90;;;11.37;;
23072;SDS011;34865;51.046;3.732;2022-12-16T18:14:08;27.13;;;11.10;;
23072;SDS011;34865;51.046;3.732;2022-12-16T18:16:52;21.63;;;12.07;;
23072;SDS011;34865;51.046;3.732;2022-12-16T18:19:36;23.83;;;11.43;;
23072;SDS011;34865;51.046;3.732;2022-12-16T18:22:21;22.00;;;10.97;;